sensor_id;sensor_type;location;lat;lon;timestamp;pressure;altitude;pressure_sealevel;temperature;humidity
9740;BME280;4909;42.680;26.324;2022-12-18T00:01:57;99173.97;;;15.42;83.03
9740;BME280;4909;42.680;26.324;2022-12-18T00:04:26;99160.34;;;15.47;83.49
9740;BME280;4909;42.680;26.324;2022-12-18T00:06:53;99161.13;;;15.49;86.04
9740;BME280;4909;42.680;26.324;2022-12-18T00:09:20;99163.69;;;15.35;82.10
9740;BME280;4909;42.680;26.324;2022-12-18T00:11:47;99178.63;;;15.39;82.50
9740;BME280;4909;42.680;26.324;2022-12-18T00:14:14;99185.53;;;14.94;81.79
9740;BME280;4909;42.680;26.324;2022-12-18T00:16:43;99186.66;;;14.73;83.68
9740;BME280;4909;42.680;26.324;2022-12-18T00:19:11;99193.69;;;14.91;84.42
9740;BME280;4909;42.680;26.324;2022-12-18T00:21:39;99195.34;;;15.27;87.25
9740;BME280;4909;42.680;26.324;2022-12-18T00:24:07;99200.06;;;15.21;86.25
9740;BME280;4909;42.680;26.324;2022-12-18T00:26:35;99196.63;;;15.19;83.18
9740;BME280;4909;42.680;26.324;2022-12-18T00:29:03;99205.41;;;14.89;82.63
9740;BME280;4909;42.680;26.324;2022-12-18T00:31:31;99215.81;;;15.43;83.94
9740;BME280;4909;42.680;26.324;2022-12-18T00:33:58;99222.69;;;15.32;84.05
9740;BME280;4909;42.680;26.324;2022-12-18T00:36:27;99228.09;;;15.14;81.70
9740;BME280;4909;42.680;26.324;2022-12-18T00:38:57;99201.16;;;15.50;85.54
9740;BME280;4909;42.680;26.324;2022-12-18T00:41:25;99228.41;;;15.58;85.07
9740;BME280;4909;42.680;26.324;2022-12-18T00:44:12;99222.78;;;15.63;83.95
9740;BME280;4909;42.680;26.324;2022-12-18T00:46:39;99218.91;;;15.36;79.81
9740;BME280;4909;42.680;26.324;2022-12-18T00:49:06;99208.78;;;15.25;83.50
9740;BME280;4909;42.680;26.324;2022-12-18T00:51:33;99218.47;;;15.28;82.85
9740;BME280;4909;42.680;26.324;2022-12-18T00:54:01;99235.16;;;15.48;83.16
9740;BME280;4909;42.680;26.324;2022-12-18T00:56:28;99251.75;;;15.55;81.25
9740;BME280;4909;42.680;26.324;2022-12-18T00:58:55;99236.88;;;15.82;82.89
9740;BME280;4909;42.680;26.324;2022-12-18T01:01:22;99230.34;;;15.55;82.05
9740;BME280;4909;42.680;26.324;2022-12-18T01:03:49;99227.41;;;15.59;86.00
9740;BME280;4909;42.680;26.324;2022-12-18T01:06:16;99239.53;;;15.49;79.71
9740;BME280;4909;42.680;26.324;2022-12-18T01:08:44;99234.94;;;15.69;81.96
9740;BME280;4909;42.680;26.324;2022-12-18T01:13:58;99263.09;;;16.23;77.81
9740;BME280;4909;42.680;26.324;2022-12-18T01:16:25;99263.75;;;16.42;78.93
9740;BME280;4909;42.680;26.324;2022-12-18T01:18:53;99271.41;;;16.79;83.90
9740;BME280;4909;42.680;26.324;2022-12-18T01:21:21;99272.72;;;17.16;80.91
9740;BME280;4909;42.680;26.324;2022-12-18T01:23:51;99239.13;;;16.81;84.21
9740;BME280;4909;42.680;26.324;2022-12-18T01:26:20;99212.44;;;16.93;81.88
9740;BME280;4909;42.680;26.324;2022-12-18T01:28:47;99272.16;;;17.54;78.96
9740;BME280;4909;42.680;26.324;2022-12-18T01:31:16;99275.97;;;17.21;79.15
9740;BME280;4909;42.680;26.324;2022-12-18T01:33:44;99274.88;;;17.68;80.90
9740;BME280;4909;42.680;26.324;2022-12-18T01:36:16;99285.56;;;17.39;74.99
9740;BME280;4909;42.680;26.324;2022-12-18T01:38:44;99295.16;;;16.85;75.03
9740;BME280;4909;42.680;26.324;2022-12-18T01:41:11;99292.16;;;16.76;75.55
9740;BME280;4909;42.680;26.324;2022-12-18T01:43:48;99284.16;;;16.60;82.98
9740;BME280;4909;42.680;26.324;2022-12-18T01:46:16;99292.81;;;16.65;76.66
9740;BME280;4909;42.680;26.324;2022-12-18T01:48:44;99260.75;;;16.78;83.25
9740;BME280;4909;42.680;26.324;2022-12-18T01:51:13;99232.66;;;16.39;77.40
9740;BME280;4909;42.680;26.324;2022-12-18T01:53:41;99280.47;;;16.77;83.65
9740;BME280;4909;42.680;26.324;2022-12-18T01:56:12;99274.47;;;16.87;78.39
9740;BME280;4909;42.680;26.324;2022-12-18T01:58:46;99257.69;;;16.54;80.54
9740;BME280;4909;42.680;26.324;2022-12-18T02:01:15;99261.78;;;16.45;82.77
9740;BME280;4909;42.680;26.324;2022-12-18T02:03:42;99258.38;;;16.42;78.23
9740;BME280;4909;42.680;26.324;2022-12-18T02:06:15;99261.66;;;16.63;84.89
9740;BME280;4909;42.680;26.324;2022-12-18T02:09:00;99236.69;;;16.17;84.14
9740;BME280;4909;42.680;26.324;2022-12-18T02:11:36;99258.81;;;17.10;79.86
9740;BME280;4909;42.680;26.324;2022-12-18T02:14:18;99250.28;;;17.03;77.92
9740;BME280;4909;42.680;26.324;2022-12-18T02:16:51;99236.63;;;16.78;77.51
9740;BME280;4909;42.680;26.324;2022-12-18T02:19:43;99219.34;;;16.98;83.98
9740;BME280;4909;42.680;26.324;2022-12-18T02:22:26;99240.56;;;17.59;80.09
9740;BME280;4909;42.680;26.324;2022-12-18T02:25:02;99223.91;;;17.95;73.88
9740;BME280;4909;42.680;26.324;2022-12-18T02:27:36;99240.53;;;17.73;76.52
9740;BME280;4909;42.680;26.324;2022-12-18T02:30:06;99237.66;;;17.33;76.85
9740;BME280;4909;42.680;26.324;2022-12-18T02:32:38;99238.97;;;17.83;82.46
9740;BME280;4909;42.680;26.324;2022-12-18T02:35:11;99243.78;;;17.50;76.10
9740;BME280;4909;42.680;26.324;2022-12-18T02:37:39;99235.94;;;17.75;82.38
9740;BME280;4909;42.680;26.324;2022-12-18T02:40:09;99235.22;;;18.27;79.88
9740;BME280;4909;42.680;26.324;2022-12-18T02:42:38;99241.94;;;18.46;78.88
9740;BME280;4909;42.680;26.324;2022-12-18T02:45:06;99240.91;;;18.22;74.51
9740;BME280;4909;42.680;26.324;2022-12-18T02:47:36;99244.81;;;18.04;77.17
9740;BME280;4909;42.680;26.324;2022-12-18T02:50:10;99244.91;;;17.88;72.60
9740;BME280;4909;42.680;26.324;2022-12-18T02:52:47;99239.91;;;17.96;77.15
9740;BME280;4909;42.680;26.324;2022-12-18T02:55:28;99247.34;;;17.64;73.43
9740;BME280;4909;42.680;26.324;2022-12-18T02:58:03;99249.13;;;17.07;77.86
9740;BME280;4909;42.680;26.324;2022-12-18T03:00:36;99226.06;;;17.33;79.15
9740;BME280;4909;42.680;26.324;2022-12-18T03:03:07;99256.69;;;17.01;75.67
9740;BME280;4909;42.680;26.324;2022-12-18T03:05:38;99251.81;;;16.63;76.27
9740;BME280;4909;42.680;26.324;2022-12-18T03:08:10;99257.78;;;16.52;77.32
9740;BME280;4909;42.680;26.324;2022-12-18T03:10:42;99261.28;;;16.84;76.86
9740;BME280;4909;42.680;26.324;2022-12-18T03:13:15;99258.13;;;17.06;74.98
9740;BME280;4909;42.680;26.324;2022-12-18T03:15:48;99269.09;;;17.17;76.85
9740;BME280;4909;42.680;26.324;2022-12-18T03:18:18;99270.22;;;16.69;74.86
9740;BME280;4909;42.680;26.324;2022-12-18T03:20:47;99272.25;;;16.80;78.89
9740;BME280;4909;42.680;26.324;2022-12-18T03:23:18;99271.09;;;16.54;78.01
9740;BME280;4909;42.680;26.324;2022-12-18T03:25:49;99277.09;;;16.12;75.15
9740;BME280;4909;42.680;26.324;2022-12-18T03:28:20;99274.50;;;15.95;76.70
9740;BME280;4909;42.680;26.324;2022-12-18T03:30:51;99272.16;;;16.81;82.91
9740;BME280;4909;42.680;26.324;2022-12-18T03:33:25;99268.16;;;16.88;71.82
9740;BME280;4909;42.680;26.324;2022-12-18T03:35:53;99244.38;;;16.52;76.49
9740;BME280;4909;42.680;26.324;2022-12-18T03:38:20;99266.69;;;17.13;76.95
9740;BME280;4909;42.680;26.324;2022-12-18T03:40:53;99272.25;;;17.38;78.41
9740;BME280;4909;42.680;26.324;2022-12-18T03:43:35;99280.81;;;17.59;74.90
9740;BME280;4909;42.680;26.324;2022-12-18T03:46:08;99286.25;;;18.00;76.53
9740;BME280;4909;42.680;26.324;2022-12-18T03:48:43;99284.34;;;17.88;76.68
9740;BME280;4909;42.680;26.324;2022-12-18T03:51:15;99299.41;;;18.31;76.23
9740;BME280;4909;42.680;26.324;2022-12-18T03:53:49;99296.53;;;17.93;68.71
9740;BME280;4909;42.680;26.324;2022-12-18T03:56:20;99306.38;;;17.36;70.84
9740;BME280;4909;42.680;26.324;2022-12-18T03:58:52;99315.91;;;17.12;74.62
9740;BME280;4909;42.680;26.324;2022-12-18T04:01:23;99307.44;;;16.60;71.88
9740;BME280;4909;42.680;26.324;2022-12-18T04:03:52;99318.47;;;16.69;75.64
9740;BME280;4909;42.680;26.324;2022-12-18T04:06:21;99339.31;;;16.64;72.96
9740;BME280;4909;42.680;26.324;2022-12-18T04:08:48;99338.59;;;16.76;79.92
9740;BME280;4909;42.680;26.324;2022-12-18T04:11:15;99340.31;;;17.37;79.10
9740;BME280;4909;42.680;26.324;2022-12-18T04:13:42;99345.31;;;16.99;75.09
9740;BME280;4909;42.680;26.324;2022-12-18T04:16:11;99366.94;;;16.33;71.50
9740;BME280;4909;42.680;26.324;2022-12-18T04:18:38;99372.56;;;15.97;77.02
9740;BME280;4909;42.680;26.324;2022-12-18T04:21:05;99356.91;;;15.57;77.62
9740;BME280;4909;42.680;26.324;2022-12-18T04:23:32;99365.34;;;15.82;79.58
9740;BME280;4909;42.680;26.324;2022-12-18T04:25:59;99367.31;;;15.79;80.18
9740;BME280;4909;42.680;26.324;2022-12-18T04:28:25;99370.25;;;16.07;79.82
9740;BME280;4909;42.680;26.324;2022-12-18T04:30:52;99373.63;;;16.26;78.07
9740;BME280;4909;42.680;26.324;2022-12-18T04:33:20;99368.34;;;16.72;78.95
9740;BME280;4909;42.680;26.324;2022-12-18T04:35:47;99377.59;;;16.50;76.08
9740;BME280;4909;42.680;26.324;2022-12-18T04:38:14;99384.34;;;16.26;73.13
9740;BME280;4909;42.680;26.324;2022-12-18T04:40:41;99379.91;;;16.25;76.54
9740;BME280;4909;42.680;26.324;2022-12-18T04:43:07;99376.66;;;15.54;79.04
9740;BME280;4909;42.680;26.324;2022-12-18T04:45:34;99384.97;;;15.65;80.81
9740;BME280;4909;42.680;26.324;2022-12-18T04:48:02;99379.63;;;15.98;78.23
9740;BME280;4909;42.680;26.324;2022-12-18T04:50:30;99383.19;;;16.15;79.68
9740;BME280;4909;42.680;26.324;2022-12-18T04:52:58;99381.75;;;15.59;76.62
9740;BME280;4909;42.680;26.324;2022-12-18T04:55:24;99388.69;;;15.63;76.18
9740;BME280;4909;42.680;26.324;2022-12-18T04:57:51;99388.22;;;15.38;77.37
9740;BME280;4909;42.680;26.324;2022-12-18T05:00:19;99391.38;;;15.29;79.04
9740;BME280;4909;42.680;26.324;2022-12-18T05:02:46;99393.03;;;15.14;76.43
9740;BME280;4909;42.680;26.324;2022-12-18T05:05:12;99399.84;;;15.02;80.46
9740;BME280;4909;42.680;26.324;2022-12-18T05:07:40;99391.44;;;15.10;81.26
9740;BME280;4909;42.680;26.324;2022-12-18T05:10:07;99397.19;;;15.19;79.22
9740;BME280;4909;42.680;26.324;2022-12-18T05:12:34;99408.03;;;15.16;82.05
9740;BME280;4909;42.680;26.324;2022-12-18T05:15:22;99414.72;;;15.77;81.91
9740;BME280;4909;42.680;26.324;2022-12-18T05:17:49;99412.66;;;15.82;81.53
9740;BME280;4909;42.680;26.324;2022-12-18T05:20:16;99423.13;;;15.69;73.95
9740;BME280;4909;42.680;26.324;2022-12-18T05:22:44;99427.16;;;15.78;74.71
9740;BME280;4909;42.680;26.324;2022-12-18T05:25:11;99426.69;;;15.70;76.13
9740;BME280;4909;42.680;26.324;2022-12-18T05:27:38;99415.66;;;15.41;78.66
9740;BME280;4909;42.680;26.324;2022-12-18T05:30:06;99428.72;;;14.77;78.68
9740;BME280;4909;42.680;26.324;2022-12-18T05:32:33;99425.63;;;14.86;81.52
9740;BME280;4909;42.680;26.324;2022-12-18T05:35:00;99435.59;;;14.83;75.97
9740;BME280;4909;42.680;26.324;2022-12-18T05:37:27;99437.78;;;14.56;78.02
9740;BME280;4909;42.680;26.324;2022-12-18T05:39:55;99444.34;;;14.67;81.94
9740;BME280;4909;42.680;26.324;2022-12-18T05:42:22;99449.91;;;14.44;78.98
9740;BME280;4909;42.680;26.324;2022-12-18T05:44:48;99436.28;;;14.50;81.27
9740;BME280;4909;42.680;26.324;2022-12-18T05:47:15;99417.22;;;14.94;84.49
9740;BME280;4909;42.680;26.324;2022-12-18T05:49:42;99449.97;;;14.80;75.42
9740;BME280;4909;42.680;26.324;2022-12-18T05:52:09;99460.69;;;14.97;81.73
9740;BME280;4909;42.680;26.324;2022-12-18T05:54:36;99458.88;;;14.98;78.23
9740;BME280;4909;42.680;26.324;2022-12-18T05:57:04;99412.03;;;14.91;77.15
9740;BME280;4909;42.680;26.324;2022-12-18T05:59:31;99475.22;;;14.92;78.18
9740;BME280;4909;42.680;26.324;2022-12-18T06:01:58;99476.03;;;14.94;79.19
9740;BME280;4909;42.680;26.324;2022-12-18T06:04:26;99480.47;;;15.12;80.44
9740;BME280;4909;42.680;26.324;2022-12-18T06:06:53;99482.13;;;15.68;82.02
9740;BME280;4909;42.680;26.324;2022-12-18T06:09:20;99484.84;;;15.49;76.52
9740;BME280;4909;42.680;26.324;2022-12-18T06:11:47;99491.78;;;15.00;78.60
9740;BME280;4909;42.680;26.324;2022-12-18T06:14:15;99483.88;;;14.97;76.68
9740;BME280;4909;42.680;26.324;2022-12-18T06:16:42;99501.72;;;15.15;80.45
9740;BME280;4909;42.680;26.324;2022-12-18T06:19:14;99521.63;;;15.97;76.79
9740;BME280;4909;42.680;26.324;2022-12-18T06:21:41;99513.84;;;15.75;72.44
9740;BME280;4909;42.680;26.324;2022-12-18T06:24:08;99523.50;;;15.95;77.49
9740;BME280;4909;42.680;26.324;2022-12-18T06:26:37;99489.34;;;14.58;71.61
9740;BME280;4909;42.680;26.324;2022-12-18T06:29:04;99524.00;;;14.78;77.38
9740;BME280;4909;42.680;26.324;2022-12-18T06:31:32;99532.06;;;15.14;75.57
9740;BME280;4909;42.680;26.324;2022-12-18T06:34:02;99510.28;;;14.67;76.51
9740;BME280;4909;42.680;26.324;2022-12-18T06:36:29;99537.56;;;14.55;80.50
9740;BME280;4909;42.680;26.324;2022-12-18T06:38:56;99533.97;;;14.35;76.77
9740;BME280;4909;42.680;26.324;2022-12-18T06:41:23;99557.97;;;13.97;77.76
9740;BME280;4909;42.680;26.324;2022-12-18T06:43:50;99556.41;;;13.51;81.80
9740;BME280;4909;42.680;26.324;2022-12-18T06:46:16;99558.63;;;13.61;79.82
9740;BME280;4909;42.680;26.324;2022-12-18T06:48:48;99564.97;;;13.37;81.65
9740;BME280;4909;42.680;26.324;2022-12-18T06:51:19;99566.69;;;13.60;81.64
9740;BME280;4909;42.680;26.324;2022-12-18T06:53:46;99567.63;;;13.59;80.57
9740;BME280;4909;42.680;26.324;2022-12-18T06:56:13;99580.63;;;13.66;80.42
9740;BME280;4909;42.680;26.324;2022-12-18T06:58:40;99579.66;;;13.69;79.20
9740;BME280;4909;42.680;26.324;2022-12-18T07:01:09;99588.97;;;13.59;80.48
9740;BME280;4909;42.680;26.324;2022-12-18T07:03:36;99579.59;;;13.48;79.42
9740;BME280;4909;42.680;26.324;2022-12-18T07:06:05;99587.22;;;13.58;80.39
9740;BME280;4909;42.680;26.324;2022-12-18T07:08:32;99598.81;;;13.57;80.31
9740;BME280;4909;42.680;26.324;2022-12-18T07:10:59;99605.66;;;13.64;77.46
9740;BME280;4909;42.680;26.324;2022-12-18T07:13:29;99617.44;;;13.36;76.41
9740;BME280;4909;42.680;26.324;2022-12-18T07:16:03;99582.78;;;13.15;79.02
9740;BME280;4909;42.680;26.324;2022-12-18T07:18:30;99618.06;;;13.21;77.70
9740;BME280;4909;42.680;26.324;2022-12-18T07:20:56;99605.22;;;13.31;80.89
9740;BME280;4909;42.680;26.324;2022-12-18T07:23:25;99613.00;;;13.14;80.63
9740;BME280;4909;42.680;26.324;2022-12-18T07:25:52;99631.94;;;13.29;76.49
9740;BME280;4909;42.680;26.324;2022-12-18T07:28:18;99636.41;;;13.72;82.88
9740;BME280;4909;42.680;26.324;2022-12-18T07:30:45;99643.44;;;13.95;78.62
9740;BME280;4909;42.680;26.324;2022-12-18T07:33:12;99636.72;;;14.07;76.35
9740;BME280;4909;42.680;26.324;2022-12-18T07:35:39;99643.34;;;13.76;79.84
9740;BME280;4909;42.680;26.324;2022-12-18T07:38:08;99644.09;;;13.80;77.58
9740;BME280;4909;42.680;26.324;2022-12-18T07:40:37;99659.34;;;13.98;74.73
9740;BME280;4909;42.680;26.324;2022-12-18T07:43:03;99661.84;;;15.21;81.14
9740;BME280;4909;42.680;26.324;2022-12-18T07:45:30;99681.72;;;14.38;74.00
9740;BME280;4909;42.680;26.324;2022-12-18T07:47:57;99683.69;;;14.53;79.18
9740;BME280;4909;42.680;26.324;2022-12-18T07:50:24;99692.94;;;15.05;75.74
9740;BME280;4909;42.680;26.324;2022-12-18T07:52:53;99697.31;;;15.99;76.97
9740;BME280;4909;42.680;26.324;2022-12-18T07:55:20;99707.28;;;15.60;67.97
9740;BME280;4909;42.680;26.324;2022-12-18T07:57:48;99702.78;;;15.42;78.65
9740;BME280;4909;42.680;26.324;2022-12-18T08:00:15;99714.38;;;14.64;73.39
9740;BME280;4909;42.680;26.324;2022-12-18T08:02:43;99716.22;;;15.21;84.67
9740;BME280;4909;42.680;26.324;2022-12-18T08:05:10;99719.66;;;15.44;72.24
9740;BME280;4909;42.680;26.324;2022-12-18T08:07:36;99720.88;;;15.55;75.29
9740;BME280;4909;42.680;26.324;2022-12-18T08:10:04;99721.03;;;14.74;73.81
9740;BME280;4909;42.680;26.324;2022-12-18T08:12:31;99734.34;;;14.34;76.96
9740;BME280;4909;42.680;26.324;2022-12-18T08:14:59;99727.03;;;14.39;78.29
9740;BME280;4909;42.680;26.324;2022-12-18T08:17:26;99731.25;;;14.45;74.97
9740;BME280;4909;42.680;26.324;2022-12-18T08:19:53;99739.81;;;14.73;74.11
9740;BME280;4909;42.680;26.324;2022-12-18T08:22:19;99740.38;;;13.52;73.13
9740;BME280;4909;42.680;26.324;2022-12-18T08:24:46;99742.84;;;13.12;76.80
9740;BME280;4909;42.680;26.324;2022-12-18T08:27:13;99736.75;;;12.32;81.65
9740;BME280;4909;42.680;26.324;2022-12-18T08:29:40;99740.63;;;11.96;85.79
9740;BME280;4909;42.680;26.324;2022-12-18T08:32:08;99737.16;;;11.94;88.47
9740;BME280;4909;42.680;26.324;2022-12-18T08:34:35;99734.28;;;11.73;87.58
9740;BME280;4909;42.680;26.324;2022-12-18T08:37:02;99741.72;;;12.43;88.92
9740;BME280;4909;42.680;26.324;2022-12-18T08:39:29;99736.22;;;13.45;91.66
9740;BME280;4909;42.680;26.324;2022-12-18T08:41:56;99718.06;;;13.98;83.21
9740;BME280;4909;42.680;26.324;2022-12-18T08:44:42;99741.19;;;14.82;87.32
9740;BME280;4909;42.680;26.324;2022-12-18T08:47:11;99740.81;;;16.04;84.34
9740;BME280;4909;42.680;26.324;2022-12-18T08:49:37;99746.06;;;15.70;74.73
9740;BME280;4909;42.680;26.324;2022-12-18T08:52:04;99738.34;;;16.00;79.01
9740;BME280;4909;42.680;26.324;2022-12-18T08:54:31;99747.41;;;17.02;79.06
9740;BME280;4909;42.680;26.324;2022-12-18T08:56:58;99751.41;;;18.08;78.37
9740;BME280;4909;42.680;26.324;2022-12-18T08:59:24;99751.97;;;18.74;74.92
9740;BME280;4909;42.680;26.324;2022-12-18T09:01:53;99761.47;;;18.50;68.06
9740;BME280;4909;42.680;26.324;2022-12-18T09:04:22;99761.31;;;18.37;71.22
9740;BME280;4909;42.680;26.324;2022-12-18T09:06:49;99761.09;;;17.63;67.48
9740;BME280;4909;42.680;26.324;2022-12-18T09:09:15;99760.59;;;16.89;65.87
9740;BME280;4909;42.680;26.324;2022-12-18T09:11:42;99762.13;;;16.42;71.86
9740;BME280;4909;42.680;26.324;2022-12-18T09:14:10;99746.88;;;16.61;81.19
9740;BME280;4909;42.680;26.324;2022-12-18T09:16:37;99762.00;;;16.09;66.80
9740;BME280;4909;42.680;26.324;2022-12-18T09:19:04;99752.22;;;15.72;75.40
9740;BME280;4909;42.680;26.324;2022-12-18T09:21:34;99714.38;;;15.61;77.88
9740;BME280;4909;42.680;26.324;2022-12-18T09:24:01;99751.59;;;15.28;70.37
9740;BME280;4909;42.680;26.324;2022-12-18T09:26:28;99738.00;;;15.33;80.02
9740;BME280;4909;42.680;26.324;2022-12-18T09:28:55;99748.03;;;16.02;79.80
9740;BME280;4909;42.680;26.324;2022-12-18T09:31:23;99746.38;;;16.53;82.47
9740;BME280;4909;42.680;26.324;2022-12-18T09:33:51;99724.03;;;16.71;77.89
9740;BME280;4909;42.680;26.324;2022-12-18T09:36:18;99749.78;;;16.91;76.16
9740;BME280;4909;42.680;26.324;2022-12-18T09:38:47;99753.84;;;16.65;77.20
9740;BME280;4909;42.680;26.324;2022-12-18T09:41:31;99752.34;;;16.60;69.43
9740;BME280;4909;42.680;26.324;2022-12-18T09:44:02;99722.59;;;16.81;83.87
9740;BME280;4909;42.680;26.324;2022-12-18T09:46:34;99727.75;;;15.80;76.23
9740;BME280;4909;42.680;26.324;2022-12-18T09:49:05;99759.16;;;15.76;76.90
9740;BME280;4909;42.680;26.324;2022-12-18T09:51:37;99737.31;;;16.02;87.39
9740;BME280;4909;42.680;26.324;2022-12-18T09:54:11;99742.34;;;15.91;82.45
9740;BME280;4909;42.680;26.324;2022-12-18T09:56:41;99745.25;;;15.87;80.38
9740;BME280;4909;42.680;26.324;2022-12-18T09:59:20;99747.16;;;15.66;81.79
9740;BME280;4909;42.680;26.324;2022-12-18T10:01:47;99763.41;;;15.80;82.57
9740;BME280;4909;42.680;26.324;2022-12-18T10:04:14;99757.53;;;16.27;82.87
9740;BME280;4909;42.680;26.324;2022-12-18T10:06:45;99756.94;;;16.39;79.30
9740;BME280;4909;42.680;26.324;2022-12-18T10:09:21;99749.41;;;16.11;84.59
9740;BME280;4909;42.680;26.324;2022-12-18T10:11:56;99756.41;;;16.49;81.39
9740;BME280;4909;42.680;26.324;2022-12-18T10:14:29;99751.47;;;16.59;81.77
9740;BME280;4909;42.680;26.324;2022-12-18T10:17:05;99754.06;;;16.61;80.46
9740;BME280;4909;42.680;26.324;2022-12-18T10:19:41;99747.19;;;16.55;80.00
9740;BME280;4909;42.680;26.324;2022-12-18T10:22:26;99758.97;;;16.34;75.45
9740;BME280;4909;42.680;26.324;2022-12-18T10:25:00;99753.63;;;15.98;81.68
9740;BME280;4909;42.680;26.324;2022-12-18T10:27:28;99749.91;;;16.19;84.47
9740;BME280;4909;42.680;26.324;2022-12-18T10:29:56;99752.69;;;15.99;68.51
9740;BME280;4909;42.680;26.324;2022-12-18T10:32:25;99737.38;;;15.65;77.61
9740;BME280;4909;42.680;26.324;2022-12-18T10:34:55;99742.09;;;15.60;81.35
9740;BME280;4909;42.680;26.324;2022-12-18T10:37:25;99747.31;;;15.63;79.45
9740;BME280;4909;42.680;26.324;2022-12-18T10:40:09;99748.19;;;14.86;78.49
9740;BME280;4909;42.680;26.324;2022-12-18T10:42:38;99742.31;;;14.96;80.14
9740;BME280;4909;42.680;26.324;2022-12-18T10:45:12;99759.91;;;13.98;71.56
9740;BME280;4909;42.680;26.324;2022-12-18T10:47:42;99759.31;;;13.68;73.69
9740;BME280;4909;42.680;26.324;2022-12-18T10:50:19;99755.06;;;13.85;83.93
9740;BME280;4909;42.680;26.324;2022-12-18T10:52:54;99765.84;;;13.14;67.99
9740;BME280;4909;42.680;26.324;2022-12-18T10:55:24;99734.09;;;12.58;80.55
9740;BME280;4909;42.680;26.324;2022-12-18T10:57:57;99750.72;;;13.15;78.15
9740;BME280;4909;42.680;26.324;2022-12-18T11:00:39;99757.88;;;12.88;67.65
9740;BME280;4909;42.680;26.324;2022-12-18T11:03:29;99736.34;;;12.69;73.82
9740;BME280;4909;42.680;26.324;2022-12-18T11:06:06;99763.84;;;12.70;69.90
9740;BME280;4909;42.680;26.324;2022-12-18T11:08:33;99767.09;;;12.28;67.42
9740;BME280;4909;42.680;26.324;2022-12-18T11:11:02;99753.25;;;12.17;73.88
9740;BME280;4909;42.680;26.324;2022-12-18T11:13:30;99762.88;;;12.47;76.23
9740;BME280;4909;42.680;26.324;2022-12-18T11:15:58;99767.44;;;12.17;76.51
9740;BME280;4909;42.680;26.324;2022-12-18T11:18:28;99774.00;;;12.34;74.01
9740;BME280;4909;42.680;26.324;2022-12-18T11:20:57;99769.53;;;12.34;72.87
9740;BME280;4909;42.680;26.324;2022-12-18T11:23:26;99769.78;;;12.27;69.54
9740;BME280;4909;42.680;26.324;2022-12-18T11:25:56;99760.59;;;12.35;71.07
9740;BME280;4909;42.680;26.324;2022-12-18T11:28:37;99760.41;;;12.41;70.12
9740;BME280;4909;42.680;26.324;2022-12-18T11:31:20;99757.94;;;12.35;72.08
9740;BME280;4909;42.680;26.324;2022-12-18T11:33:54;99767.94;;;12.29;70.80
9740;BME280;4909;42.680;26.324;2022-12-18T11:36:23;99766.03;;;12.32;72.11
9740;BME280;4909;42.680;26.324;2022-12-18T11:38:53;99745.09;;;12.22;67.93
9740;BME280;4909;42.680;26.324;2022-12-18T11:41:25;99781.06;;;12.59;72.84
9740;BME280;4909;42.680;26.324;2022-12-18T11:44:23;99782.72;;;12.63;75.99
9740;BME280;4909;42.680;26.324;2022-12-18T11:46:55;99762.03;;;11.93;69.71
9740;BME280;4909;42.680;26.324;2022-12-18T11:49:26;99750.47;;;11.94;73.80
9740;BME280;4909;42.680;26.324;2022-12-18T11:51:59;99794.16;;;12.67;80.25
9740;BME280;4909;42.680;26.324;2022-12-18T11:54:26;99792.75;;;12.55;79.59
9740;BME280;4909;42.680;26.324;2022-12-18T11:56:57;99788.22;;;12.84;80.41
9740;BME280;4909;42.680;26.324;2022-12-18T11:59:34;99757.25;;;13.29;75.46
9740;BME280;4909;42.680;26.324;2022-12-18T12:02:21;99807.91;;;12.80;72.39
9740;BME280;4909;42.680;26.324;2022-12-18T12:05:01;99800.84;;;13.52;82.85
9740;BME280;4909;42.680;26.324;2022-12-18T12:07:39;99814.78;;;14.05;72.71
9740;BME280;4909;42.680;26.324;2022-12-18T12:10:22;99822.25;;;13.73;67.85
9740;BME280;4909;42.680;26.324;2022-12-18T12:13:08;99820.34;;;13.30;68.19
9740;BME280;4909;42.680;26.324;2022-12-18T12:15:44;99825.91;;;13.47;72.58
9740;BME280;4909;42.680;26.324;2022-12-18T12:18:19;99824.41;;;13.40;70.56
9740;BME280;4909;42.680;26.324;2022-12-18T12:20:53;99817.56;;;13.57;77.11
9740;BME280;4909;42.680;26.324;2022-12-18T12:23:32;99826.66;;;13.98;74.30
9740;BME280;4909;42.680;26.324;2022-12-18T12:26:06;99829.22;;;13.99;72.35
9740;BME280;4909;42.680;26.324;2022-12-18T12:28:49;99842.47;;;14.47;71.59
9740;BME280;4909;42.680;26.324;2022-12-18T12:31:28;99838.47;;;13.90;68.46
9740;BME280;4909;42.680;26.324;2022-12-18T12:34:06;99845.25;;;12.78;76.44
9740;BME280;4909;42.680;26.324;2022-12-18T12:36:43;99837.94;;;12.32;78.81
9740;BME280;4909;42.680;26.324;2022-12-18T12:39:17;99839.28;;;12.17;84.69
9740;BME280;4909;42.680;26.324;2022-12-18T12:41:46;99836.88;;;12.38;82.19
9740;BME280;4909;42.680;26.324;2022-12-18T12:44:34;99830.25;;;12.23;86.13
9740;BME280;4909;42.680;26.324;2022-12-18T12:47:11;99834.91;;;12.69;91.17
9740;BME280;4909;42.680;26.324;2022-12-18T12:49:40;99841.41;;;12.87;89.22
9740;BME280;4909;42.680;26.324;2022-12-18T12:52:15;99835.66;;;12.99;90.87
9740;BME280;4909;42.680;26.324;2022-12-18T12:54:44;99841.09;;;13.92;89.45
9740;BME280;4909;42.680;26.324;2022-12-18T12:57:16;99851.22;;;14.51;86.47
9740;BME280;4909;42.680;26.324;2022-12-18T12:59:50;99856.19;;;14.38;83.16
9740;BME280;4909;42.680;26.324;2022-12-18T13:02:29;99865.41;;;13.84;82.41
9740;BME280;4909;42.680;26.324;2022-12-18T13:05:01;99846.38;;;13.22;87.94
9740;BME280;4909;42.680;26.324;2022-12-18T13:07:35;99876.50;;;14.19;90.61
9740;BME280;4909;42.680;26.324;2022-12-18T13:13:02;99886.13;;;15.10;81.23
9740;BME280;4909;42.680;26.324;2022-12-18T13:15:32;99878.81;;;13.60;83.50
9740;BME280;4909;42.680;26.324;2022-12-18T13:18:10;99846.59;;;12.91;87.07
9740;BME280;4909;42.680;26.324;2022-12-18T13:20:39;99857.91;;;12.72;92.70
9740;BME280;4909;42.680;26.324;2022-12-18T13:23:26;99882.75;;;13.25;90.59
9740;BME280;4909;42.680;26.324;2022-12-18T13:25:54;99829.75;;;12.89;91.49
9740;BME280;4909;42.680;26.324;2022-12-18T13:28:23;99897.66;;;13.78;90.78
9740;BME280;4909;42.680;26.324;2022-12-18T13:31:04;99900.03;;;13.86;88.58
9740;BME280;4909;42.680;26.324;2022-12-18T13:33:50;99881.91;;;13.47;86.34